Time;durP1;ratioP1;P1;durP2;ratioP2;P2;SDS_P1;SDS_P2;PMS_P1;PMS_P2;Temp;Humidity;BMP_temperature;BMP_pressure;BME280_temperature;BME280_humidity;BME280_pressure;Samples;Min_cycle;Max_cycle;Signal;HPM_P1;HPM_P2
2022/10/31 00:02:07;;;;;;;17.52;8.48;;;;;;;;;;4995620;28;20472;-81
2022/10/31 00:04:33;;;;;;;19.00;9.45;;;;;;;;;;4995595;28;20026;-81
2022/10/31 00:06:59;;;;;;;19.55;8.98;;;;;;;;;;4994818;28;20034;-81
2022/10/31 00:09:25;;;;;;;21.50;9.32;;;;;;;;;;4962041;28;20030;-81
2022/10/31 00:11:51;;;;;;;20.27;9.02;;;;;;;;;;4995441;28;20030;-81
2022/10/31 00:14:17;;;;;;;19.48;9.63;;;;;;;;;;4995263;28;20030;-82
2022/10/31 00:16:43;;;;;;;15.88;8.73;;;;;;;;;;4995710;28;20030;-81
2022/10/31 00:19:09;;;;;;;14.85;9.00;;;;;;;;;;5014779;28;20022;-81
2022/10/31 00:21:36;;;;;;;19.92;10.05;;;;;;;;;;5014754;28;20026;-81
2022/10/31 00:24:02;;;;;;;21.25;9.02;;;;;;;;;;5014669;28;20029;-81
2022/10/31 00:26:29;;;;;;;25.00;9.35;;;;;;;;;;5014695;28;20021;-81
2022/10/31 00:28:55;;;;;;;19.08;8.93;;;;;;;;;;4996885;28;20034;-81
2022/10/31 00:31:21;;;;;;;19.90;9.15;;;;;;;;;;4996778;28;20049;-81
2022/10/31 00:33:47;;;;;;;18.25;8.38;;;;;;;;;;5014657;28;20543;-81
2022/10/31 00:36:17;;;;;;;16.75;9.05;;;;;;;;;;5014416;28;20025;-81
2022/10/31 00:38:44;;;;;;;19.58;8.75;;;;;;;;;;5014538;28;20076;-81
2022/10/31 00:41:10;;;;;;;18.38;8.82;;;;;;;;;;5014534;28;20084;-81
2022/10/31 00:43:37;;;;;;;17.98;9.02;;;;;;;;;;5014492;28;20029;-81
2022/10/31 00:46:03;;;;;;;20.83;8.98;;;;;;;;;;5014229;28;20025;-81
2022/10/31 00:48:29;;;;;;;20.08;8.20;;;;;;;;;;5014210;28;20033;-81
2022/10/31 00:50:55;;;;;;;16.85;8.73;;;;;;;;;;4996672;28;20030;-81
2022/10/31 00:53:21;;;;;;;15.73;8.02;;;;;;;;;;5014061;28;20155;-81
2022/10/31 00:55:47;;;;;;;15.35;8.60;;;;;;;;;;5014263;28;20031;-81
2022/10/31 00:58:13;;;;;;;20.98;9.60;;;;;;;;;;5014124;28;20311;-81
2022/10/31 01:00:39;;;;;;;18.58;9.23;;;;;;;;;;5013891;28;20050;-81
2022/10/31 01:03:06;;;;;;;17.33;8.75;;;;;;;;;;5014064;28;20489;-81
2022/10/31 01:05:32;;;;;;;19.40;8.68;;;;;;;;;;5013993;28;20048;-81
2022/10/31 01:07:58;;;;;;;18.55;9.40;;;;;;;;;;5013693;28;20114;-81
2022/10/31 01:10:24;;;;;;;17.48;9.05;;;;;;;;;;5014585;28;20062;-82
2022/10/31 01:12:50;;;;;;;16.80;9.73;;;;;;;;;;5014632;28;20076;-82
2022/10/31 01:15:18;;;;;;;21.90;9.45;;;;;;;;;;5014404;28;20037;-81
2022/10/31 01:17:44;;;;;;;19.67;11.02;;;;;;;;;;4996011;28;20091;-82
2022/10/31 01:20:11;;;;;;;22.85;10.18;;;;;;;;;;5013035;28;20125;-81
2022/10/31 01:22:38;;;;;;;19.25;9.40;;;;;;;;;;5013845;28;20026;-82
2022/10/31 01:25:04;;;;;;;15.30;9.30;;;;;;;;;;5013572;28;20072;-81
2022/10/31 01:27:31;;;;;;;20.67;10.48;;;;;;;;;;5013537;28;20100;-81
2022/10/31 01:29:57;;;;;;;21.67;10.75;;;;;;;;;;5011188;28;20021;-81
2022/10/31 01:32:24;;;;;;;20.90;9.57;;;;;;;;;;4995643;28;20477;-81
2022/10/31 01:34:50;;;;;;;22.73;9.50;;;;;;;;;;5013397;28;20030;-81
2022/10/31 01:37:16;;;;;;;20.63;10.63;;;;;;;;;;5013354;28;20022;-81
2022/10/31 01:39:42;;;;;;;17.42;10.73;;;;;;;;;;5013316;28;20076;-81
2022/10/31 01:42:12;;;;;;;19.45;10.57;;;;;;;;;;5011949;28;20469;-81
2022/10/31 01:44:38;;;;;;;21.42;10.50;;;;;;;;;;5013287;28;20029;-81
2022/10/31 01:47:12;;;;;;;23.45;10.00;;;;;;;;;;5013138;28;20025;-81
2022/10/31 01:49:44;;;;;;;21.38;10.55;;;;;;;;;;5013082;28;20025;-81
2022/10/31 01:52:14;;;;;;;25.45;11.05;;;;;;;;;;5013012;28;20022;-81
2022/10/31 01:54:43;;;;;;;22.13;11.40;;;;;;;;;;4995406;28;20041;-81
2022/10/31 01:57:10;;;;;;;22.98;10.65;;;;;;;;;;5013011;28;20022;-81
2022/10/31 01:59:40;;;;;;;27.52;11.35;;;;;;;;;;5012816;28;20441;-81
2022/10/31 02:02:06;;;;;;;17.70;10.38;;;;;;;;;;5012847;28;20030;-81
2022/10/31 02:04:33;;;;;;;23.30;10.73;;;;;;;;;;4995358;28;20432;-81
2022/10/31 02:07:03;;;;;;;17.95;9.95;;;;;;;;;;5012019;28;20056;-81
2022/10/31 02:09:30;;;;;;;27.27;10.98;;;;;;;;;;5012848;28;20025;-81
2022/10/31 02:11:58;;;;;;;23.15;11.85;;;;;;;;;;5012859;28;20044;-81
2022/10/31 02:14:28;;;;;;;28.02;11.43;;;;;;;;;;4994892;28;20726;-81
2022/10/31 02:16:54;;;;;;;20.80;10.45;;;;;;;;;;5010885;28;20432;-81
2022/10/31 02:19:40;;;;;;;23.48;11.38;;;;;;;;;;4993030;28;20054;-81
2022/10/31 02:22:14;;;;;;;20.90;11.25;;;;;;;;;;4982817;28;20194;-81
2022/10/31 02:24:53;;;;;;;20.40;11.20;;;;;;;;;;4975415;28;20065;-81
2022/10/31 02:27:28;;;;;;;25.85;11.50;;;;;;;;;;4975582;28;20068;-81
2022/10/31 02:30:08;;;;;;;19.85;10.77;;;;;;;;;;4995400;28;20480;-81
2022/10/31 02:32:49;;;;;;;23.35;11.10;;;;;;;;;;5012406;28;20034;-81
2022/10/31 02:35:24;;;;;;;23.73;11.70;;;;;;;;;;5012504;28;20025;-81
2022/10/31 02:38:09;;;;;;;23.88;11.45;;;;;;;;;;4994746;28;20738;-81
2022/10/31 02:40:55;;;;;;;19.58;10.60;;;;;;;;;;4994779;28;20025;-81
2022/10/31 02:43:25;;;;;;;23.67;11.02;;;;;;;;;;5005129;28;20182;-81
2022/10/31 02:45:58;;;;;;;19.17;11.13;;;;;;;;;;5012418;28;20022;-81
2022/10/31 02:48:26;;;;;;;16.45;10.25;;;;;;;;;;5012423;28;20022;-81
2022/10/31 02:50:57;;;;;;;18.75;9.65;;;;;;;;;;4994960;28;20385;-81
2022/10/31 02:53:23;;;;;;;19.50;8.98;;;;;;;;;;5012432;28;20022;-81
2022/10/31 02:55:51;;;;;;;18.90;9.98;;;;;;;;;;4994862;28;20026;-81
2022/10/31 02:58:22;;;;;;;17.60;8.77;;;;;;;;;;5012074;28;20030;-81
2022/10/31 03:00:48;;;;;;;16.60;9.70;;;;;;;;;;4984171;28;20080;-81
2022/10/31 03:03:19;;;;;;;17.15;9.45;;;;;;;;;;4992566;28;20450;-81
2022/10/31 03:06:24;;;;;;;17.77;9.95;;;;;;;;;;4975268;28;20061;-81
2022/10/31 03:08:59;;;;;;;17.73;9.90;;;;;;;;;;4932654;29;20028;-81
2022/10/31 03:11:29;;;;;;;18.45;10.18;;;;;;;;;;4932691;29;20136;-81
2022/10/31 03:13:55;;;;;;;20.85;10.32;;;;;;;;;;4966458;28;20042;-81
2022/10/31 03:16:37;;;;;;;16.20;9.40;;;;;;;;;;4975018;28;20391;-81
2022/10/31 03:19:11;;;;;;;19.83;10.10;;;;;;;;;;4973343;28;20031;-81
2022/10/31 03:21:45;;;;;;;18.10;9.90;;;;;;;;;;4973121;28;20023;-81
2022/10/31 03:24:12;;;;;;;15.60;8.88;;;;;;;;;;4973070;28;20086;-81
2022/10/31 03:26:41;;;;;;;18.65;9.02;;;;;;;;;;4973054;28;20035;-81
2022/10/31 03:29:08;;;;;;;18.92;8.43;;;;;;;;;;4985156;28;20050;-81
2022/10/31 03:31:37;;;;;;;15.52;8.98;;;;;;;;;;4992816;28;20353;-81
2022/10/31 03:34:03;;;;;;;19.92;8.93;;;;;;;;;;4992431;28;20030;-81
2022/10/31 03:36:33;;;;;;;23.13;8.55;;;;;;;;;;4992539;28;20022;-81
2022/10/31 03:39:01;;;;;;;20.55;9.55;;;;;;;;;;4992345;28;20022;-81
2022/10/31 03:41:29;;;;;;;15.75;9.32;;;;;;;;;;4992384;28;20474;-81
2022/10/31 03:43:58;;;;;;;18.00;8.90;;;;;;;;;;4978287;28;20031;-81
2022/10/31 03:46:24;;;;;;;16.88;9.30;;;;;;;;;;4990719;28;20030;-81
2022/10/31 03:48:50;;;;;;;17.52;9.30;;;;;;;;;;4976313;28;20034;-81
2022/10/31 03:51:25;;;;;;;18.33;8.20;;;;;;;;;;4976404;28;20035;-81
2022/10/31 03:53:57;;;;;;;16.27;8.95;;;;;;;;;;4976160;28;20050;-81
2022/10/31 03:56:29;;;;;;;17.48;9.63;;;;;;;;;;4976110;28;20026;-81
2022/10/31 03:59:00;;;;;;;19.30;9.27;;;;;;;;;;4975295;28;20027;-81
2022/10/31 04:01:28;;;;;;;17.95;9.40;;;;;;;;;;4992124;28;20049;-81
2022/10/31 04:03:54;;;;;;;18.25;9.48;;;;;;;;;;4996977;28;20030;-81
2022/10/31 04:06:21;;;;;;;16.50;9.25;;;;;;;;;;4981167;28;20038;-80
2022/10/31 04:08:50;;;;;;;24.55;11.10;;;;;;;;;;4998020;28;20034;-80
2022/10/31 04:11:18;;;;;;;27.55;11.50;;;;;;;;;;4979559;28;20053;-80
2022/10/31 04:13:44;;;;;;;25.42;11.60;;;;;;;;;;4994707;28;20109;-81
2022/10/31 04:16:11;;;;;;;25.40;11.73;;;;;;;;;;4994343;28;20030;-81
2022/10/31 04:18:37;;;;;;;20.63;11.43;;;;;;;;;;4994254;28;20031;-81
2022/10/31 04:21:07;;;;;;;25.50;11.93;;;;;;;;;;4993978;28;20084;-81
2022/10/31 04:23:35;;;;;;;24.08;11.32;;;;;;;;;;4994509;28;20109;-80
2022/10/31 04:26:01;;;;;;;21.67;10.70;;;;;;;;;;4992397;28;20488;-81
2022/10/31 04:28:27;;;;;;;15.23;9.63;;;;;;;;;;4993937;28;20085;-81
2022/10/31 04:30:53;;;;;;;20.50;10.55;;;;;;;;;;4994686;28;20118;-81
2022/10/31 04:33:19;;;;;;;26.45;11.82;;;;;;;;;;4994258;28;20093;-81
2022/10/31 04:35:46;;;;;;;21.92;10.75;;;;;;;;;;4994697;28;20076;-81
2022/10/31 04:38:12;;;;;;;20.55;10.68;;;;;;;;;;4994917;28;20033;-81
2022/10/31 04:40:38;;;;;;;23.70;11.30;;;;;;;;;;4994871;28;20038;-81
2022/10/31 04:43:04;;;;;;;19.48;11.05;;;;;;;;;;4993575;28;20089;-81
2022/10/31 04:45:30;;;;;;;20.15;10.80;;;;;;;;;;4993342;28;20053;-81
2022/10/31 04:47:56;;;;;;;16.58;10.00;;;;;;;;;;4994653;28;20098;-81
2022/10/31 04:50:22;;;;;;;19.85;10.30;;;;;;;;;;4977390;28;20037;-81
2022/10/31 04:52:48;;;;;;;20.13;9.77;;;;;;;;;;4994612;28;20049;-81
2022/10/31 04:55:14;;;;;;;20.48;10.05;;;;;;;;;;4994752;28;20018;-81
2022/10/31 04:57:44;;;;;;;20.65;11.30;;;;;;;;;;4994571;28;20022;-81
2022/10/31 05:00:11;;;;;;;24.30;11.23;;;;;;;;;;4994294;28;20158;-81
2022/10/31 05:02:45;;;;;;;23.60;11.07;;;;;;;;;;4994857;28;20038;-81
2022/10/31 05:05:11;;;;;;;29.27;12.60;;;;;;;;;;4994406;28;20093;-81
2022/10/31 05:07:43;;;;;;;27.08;12.15;;;;;;;;;;4994237;28;20034;-81
2022/10/31 05:10:11;;;;;;;23.75;11.75;;;;;;;;;;4994193;28;20026;-81
2022/10/31 05:12:37;;;;;;;27.38;13.10;;;;;;;;;;4994102;28;20109;-81
2022/10/31 05:15:03;;;;;;;31.35;13.05;;;;;;;;;;4994301;28;20026;-81
2022/10/31 05:17:30;;;;;;;23.95;12.48;;;;;;;;;;4994316;28;20031;-81
2022/10/31 05:19:56;;;;;;;26.15;13.43;;;;;;;;;;4994222;28;20461;-81
2022/10/31 05:22:22;;;;;;;27.73;13.48;;;;;;;;;;4976859;28;20022;-81
2022/10/31 05:24:48;;;;;;;26.75;12.35;;;;;;;;;;4993893;28;20442;-81
2022/10/31 05:27:15;;;;;;;26.70;12.55;;;;;;;;;;4976388;28;20435;-81
2022/10/31 05:29:41;;;;;;;24.77;12.88;;;;;;;;;;4976112;28;20504;-81
2022/10/31 05:32:07;;;;;;;23.38;12.38;;;;;;;;;;4976428;28;20046;-81
2022/10/31 05:34:33;;;;;;;25.15;12.45;;;;;;;;;;4976181;28;20041;-81
2022/10/31 05:36:59;;;;;;;20.80;11.90;;;;;;;;;;4993733;28;20038;-81
2022/10/31 05:39:25;;;;;;;22.10;12.38;;;;;;;;;;4993665;28;20029;-81
2022/10/31 05:41:51;;;;;;;25.13;12.57;;;;;;;;;;4993684;28;20023;-81
2022/10/31 05:44:17;;;;;;;26.33;12.48;;;;;;;;;;4996482;28;20034;-82
2022/10/31 05:46:43;;;;;;;21.80;11.82;;;;;;;;;;5009884;28;20081;-81
2022/10/31 05:49:09;;;;;;;30.50;12.80;;;;;;;;;;5013196;28;20033;-81
2022/10/31 05:51:35;;;;;;;26.25;12.95;;;;;;;;;;5013120;28;20026;-81
2022/10/31 05:54:01;;;;;;;21.98;13.15;;;;;;;;;;4995281;28;20397;-81
2022/10/31 05:56:27;;;;;;;21.20;12.00;;;;;;;;;;4995621;28;20395;-81
2022/10/31 05:58:53;;;;;;;26.33;13.35;;;;;;;;;;4995563;28;20022;-81
2022/10/31 06:01:19;;;;;;;26.85;12.40;;;;;;;;;;4995177;28;20400;-81
2022/10/31 06:03:45;;;;;;;23.42;12.35;;;;;;;;;;4995508;28;20400;-81
2022/10/31 06:06:11;;;;;;;23.90;12.35;;;;;;;;;;4992904;28;20080;-81
2022/10/31 06:08:37;;;;;;;21.15;12.63;;;;;;;;;;4993774;28;20062;-81
2022/10/31 06:11:03;;;;;;;23.98;12.30;;;;;;;;;;4995195;28;20034;-81
2022/10/31 06:13:29;;;;;;;21.02;11.57;;;;;;;;;;4998646;28;20034;-81
2022/10/31 06:15:55;;;;;;;20.33;11.88;;;;;;;;;;4991868;28;20469;-82
2022/10/31 06:18:21;;;;;;;23.55;12.07;;;;;;;;;;4991785;28;20436;-82
2022/10/31 06:20:47;;;;;;;18.38;11.23;;;;;;;;;;5006918;28;20476;-81
2022/10/31 06:23:13;;;;;;;21.20;13.13;;;;;;;;;;5012751;28;20041;-81
2022/10/31 06:25:39;;;;;;;27.00;12.13;;;;;;;;;;5012635;28;20030;-81
2022/10/31 06:28:06;;;;;;;21.85;12.45;;;;;;;;;;4994016;28;20022;-81
2022/10/31 06:30:32;;;;;;;24.10;13.10;;;;;;;;;;5011193;28;20420;-81
2022/10/31 06:33:05;;;;;;;23.73;12.05;;;;;;;;;;5011138;28;20044;-81
2022/10/31 06:35:31;;;;;;;22.25;13.43;;;;;;;;;;5011143;28;20022;-82
2022/10/31 06:37:57;;;;;;;24.58;13.68;;;;;;;;;;4994657;28;20037;-82
2022/10/31 06:40:23;;;;;;;24.27;13.75;;;;;;;;;;5012364;28;20022;-82
2022/10/31 06:42:56;;;;;;;25.23;13.60;;;;;;;;;;5011302;28;20145;-83
2022/10/31 06:45:23;;;;;;;21.45;13.00;;;;;;;;;;5012392;28;20026;-80
2022/10/31 06:47:55;;;;;;;23.42;13.38;;;;;;;;;;4978836;28;20057;-78
2022/10/31 06:50:22;;;;;;;23.65;13.32;;;;;;;;;;4999296;28;20069;-78
2022/10/31 06:52:58;;;;;;;24.50;12.10;;;;;;;;;;5005548;28;20021;-78
2022/10/31 06:55:24;;;;;;;23.98;13.40;;;;;;;;;;4985566;28;20018;-78
2022/10/31 06:57:51;;;;;;;24.58;14.25;;;;;;;;;;5004127;28;20126;-79
2022/10/31 07:00:17;;;;;;;24.90;13.82;;;;;;;;;;4994427;28;20049;-79
2022/10/31 07:02:43;;;;;;;25.85;14.48;;;;;;;;;;5011931;28;20441;-79
2022/10/31 07:05:09;;;;;;;27.63;13.88;;;;;;;;;;5011790;28;20044;-78
2022/10/31 07:07:35;;;;;;;24.50;13.00;;;;;;;;;;5031737;28;20032;-78
2022/10/31 07:10:01;;;;;;;25.20;13.05;;;;;;;;;;5004815;28;20037;-79
2022/10/31 07:12:28;;;;;;;26.92;14.02;;;;;;;;;;5010762;28;20041;-81
2022/10/31 07:14:54;;;;;;;23.55;13.55;;;;;;;;;;5012041;28;20080;-81
2022/10/31 07:17:24;;;;;;;24.23;14.27;;;;;;;;;;5013328;28;20022;-81
2022/10/31 07:19:50;;;;;;;25.30;13.93;;;;;;;;;;4998687;28;20046;-81
2022/10/31 07:22:16;;;;;;;25.65;14.43;;;;;;;;;;4996046;28;20038;-83
2022/10/31 07:24:42;;;;;;;26.77;14.45;;;;;;;;;;5010842;28;20092;-81
2022/10/31 07:27:08;;;;;;;27.98;17.83;;;;;;;;;;5011025;28;20031;-82
2022/10/31 07:29:34;;;;;;;38.33;21.08;;;;;;;;;;4997045;28;20026;-82
2022/10/31 07:32:00;;;;;;;41.03;22.38;;;;;;;;;;4978303;28;20030;-82
2022/10/31 07:34:26;;;;;;;33.63;20.05;;;;;;;;;;4996044;28;20026;-82
2022/10/31 07:36:52;;;;;;;35.63;18.65;;;;;;;;;;4996009;28;20031;-82
2022/10/31 07:39:18;;;;;;;33.58;19.05;;;;;;;;;;4996106;28;20381;-83
2022/10/31 07:41:44;;;;;;;27.88;17.35;;;;;;;;;;4995940;28;20018;-82
2022/10/31 07:44:10;;;;;;;25.50;16.08;;;;;;;;;;4995852;28;20042;-81
2022/10/31 07:46:36;;;;;;;30.75;16.55;;;;;;;;;;4985983;28;20085;-82
2022/10/31 07:49:02;;;;;;;26.95;16.42;;;;;;;;;;4997984;28;20055;-83
2022/10/31 07:51:28;;;;;;;39.42;21.00;;;;;;;;;;5015318;28;20029;-81
2022/10/31 07:53:54;;;;;;;30.90;18.33;;;;;;;;;;5015352;28;20034;-81
2022/10/31 07:56:21;;;;;;;33.90;19.20;;;;;;;;;;5015327;28;20026;-81
2022/10/31 07:58:47;;;;;;;35.65;19.80;;;;;;;;;;4997601;28;20034;-81
2022/10/31 08:01:13;;;;;;;36.75;19.95;;;;;;;;;;5014918;28;20046;-81
2022/10/31 08:03:39;;;;;;;29.88;18.48;;;;;;;;;;4997605;28;20034;-81
2022/10/31 08:06:05;;;;;;;31.20;18.75;;;;;;;;;;4997285;28;20095;-81
2022/10/31 08:08:32;;;;;;;31.50;18.15;;;;;;;;;;4997805;28;20038;-81
2022/10/31 08:10:58;;;;;;;35.70;17.95;;;;;;;;;;4998266;28;20034;-82
2022/10/31 08:13:25;;;;;;;30.00;17.70;;;;;;;;;;5015586;28;20026;-83
2022/10/31 08:15:53;;;;;;;40.38;21.80;;;;;;;;;;5015524;28;20037;-81
2022/10/31 08:18:21;;;;;;;46.30;24.33;;;;;;;;;;5015104;28;20381;-82
2022/10/31 08:20:47;;;;;;;40.97;22.00;;;;;;;;;;4997341;28;20030;-82
2022/10/31 08:23:14;;;;;;;37.38;21.67;;;;;;;;;;5014787;28;20123;-81
2022/10/31 08:25:41;;;;;;;38.38;20.67;;;;;;;;;;5014686;28;20046;-80
2022/10/31 08:28:08;;;;;;;48.75;23.58;;;;;;;;;;5007856;28;20037;-80
2022/10/31 08:30:36;;;;;;;46.63;23.88;;;;;;;;;;5003570;28;20037;-81
2022/10/31 08:33:18;;;;;;;41.22;22.60;;;;;;;;;;5014034;28;20384;-81
2022/10/31 08:35:44;;;;;;;45.78;21.48;;;;;;;;;;5014680;28;20029;-81
2022/10/31 08:38:11;;;;;;;42.00;23.25;;;;;;;;;;4997169;28;20038;-81
2022/10/31 08:40:38;;;;;;;41.55;22.45;;;;;;;;;;5014438;28;20022;-80
2022/10/31 08:43:05;;;;;;;48.67;24.77;;;;;;;;;;5014429;28;20018;-79
2022/10/31 08:45:32;;;;;;;47.70;25.20;;;;;;;;;;5014583;28;20018;-81
2022/10/31 08:47:59;;;;;;;46.20;23.77;;;;;;;;;;5014368;28;20014;-81
2022/10/31 08:50:25;;;;;;;54.78;25.17;;;;;;;;;;5014301;28;20024;-81
2022/10/31 08:52:51;;;;;;;55.28;25.77;;;;;;;;;;4996877;28;20065;-81
2022/10/31 08:55:17;;;;;;;47.70;24.80;;;;;;;;;;5014263;28;20056;-81
2022/10/31 08:57:43;;;;;;;50.63;25.15;;;;;;;;;;5014316;28;20021;-81
2022/10/31 09:00:09;;;;;;;44.72;23.55;;;;;;;;;;5013870;28;20046;-81
2022/10/31 09:02:36;;;;;;;49.72;24.67;;;;;;;;;;5014575;28;20080;-81
2022/10/31 09:05:03;;;;;;;51.00;24.70;;;;;;;;;;5014120;28;20513;-81
2022/10/31 09:07:29;;;;;;;45.95;23.55;;;;;;;;;;5013983;28;20117;-81
2022/10/31 09:09:55;;;;;;;45.80;23.85;;;;;;;;;;5013946;28;20025;-81
2022/10/31 09:12:23;;;;;;;43.13;22.80;;;;;;;;;;5013884;28;20022;-81
2022/10/31 09:14:49;;;;;;;36.38;21.55;;;;;;;;;;5013709;28;20104;-81
2022/10/31 09:17:15;;;;;;;41.75;22.10;;;;;;;;;;5009003;28;20026;-81
2022/10/31 09:19:41;;;;;;;40.60;21.25;;;;;;;;;;4994040;28;20146;-81
2022/10/31 09:22:07;;;;;;;35.47;20.88;;;;;;;;;;4994056;28;20118;-81
2022/10/31 09:24:33;;;;;;;37.10;20.65;;;;;;;;;;4994070;28;20039;-81
2022/10/31 09:26:59;;;;;;;35.55;18.90;;;;;;;;;;4960590;28;20042;-81
2022/10/31 09:29:26;;;;;;;34.85;18.73;;;;;;;;;;4993800;28;20045;-81
2022/10/31 09:31:52;;;;;;;37.95;18.45;;;;;;;;;;4976680;28;20038;-81
2022/10/31 09:34:18;;;;;;;30.83;17.65;;;;;;;;;;4976565;28;20792;-81
2022/10/31 09:36:45;;;;;;;27.10;15.07;;;;;;;;;;4994061;28;20022;-81
2022/10/31 09:39:11;;;;;;;27.05;14.75;;;;;;;;;;4993648;28;20113;-81
2022/10/31 09:42:00;;;;;;;25.00;12.98;;;;;;;;;;4976437;28;20034;-81
2022/10/31 09:44:45;;;;;;;20.23;11.80;;;;;;;;;;4993825;28;20030;-81
2022/10/31 09:47:17;;;;;;;21.33;11.93;;;;;;;;;;4993826;28;20042;-81
2022/10/31 09:49:54;;;;;;;20.40;11.63;;;;;;;;;;4993777;28;20033;-81
2022/10/31 09:52:20;;;;;;;20.05;10.85;;;;;;;;;;4976132;28;20061;-81
2022/10/31 09:54:50;;;;;;;23.88;11.05;;;;;;;;;;4976037;28;20100;-82
2022/10/31 09:57:18;;;;;;;20.25;11.10;;;;;;;;;;4976179;28;20026;-81
2022/10/31 09:59:46;;;;;;;17.88;10.23;;;;;;;;;;4975989;28;20038;-81
2022/10/31 10:02:24;;;;;;;19.45;10.38;;;;;;;;;;4975898;28;20126;-79
2022/10/31 10:05:09;;;;;;;19.55;10.52;;;;;;;;;;4992681;28;20748;-80
2022/10/31 10:07:35;;;;;;;20.35;10.45;;;;;;;;;;5008071;28;20034;-80
2022/10/31 10:10:02;;;;;;;18.00;10.27;;;;;;;;;;5012792;28;20034;-81
2022/10/31 10:12:40;;;;;;;18.17;10.63;;;;;;;;;;4989885;28;20393;-80
2022/10/31 10:15:25;;;;;;;19.98;10.82;;;;;;;;;;4992832;28;20484;-79
2022/10/31 10:18:00;;;;;;;19.45;8.90;;;;;;;;;;4984967;28;20019;-80
2022/10/31 10:20:37;;;;;;;15.18;9.18;;;;;;;;;;4983967;28;20015;-80
2022/10/31 10:23:15;;;;;;;21.70;10.05;;;;;;;;;;4988296;28;20048;-79
2022/10/31 10:25:41;;;;;;;14.73;8.63;;;;;;;;;;4988242;28;20019;-79
2022/10/31 10:28:19;;;;;;;16.50;9.88;;;;;;;;;;4987006;28;20482;-79
2022/10/31 10:30:49;;;;;;;21.60;9.93;;;;;;;;;;4973300;28;20335;-79
2022/10/31 10:33:18;;;;;;;25.60;10.68;;;;;;;;;;4973454;28;20107;-79
2022/10/31 10:35:48;;;;;;;24.13;10.68;;;;;;;;;;4988341;28;20482;-79
2022/10/31 10:38:17;;;;;;;21.42;11.00;;;;;;;;;;4973311;28;20097;-79
2022/10/31 10:40:43;;;;;;;22.63;11.90;;;;;;;;;;4988087;28;20037;-79
2022/10/31 10:43:31;;;;;;;24.05;11.93;;;;;;;;;;4973452;28;20031;-79
2022/10/31 10:49:08;;;;;;;30.05;13.75;;;;;;;;;;4992092;28;20042;-81
2022/10/31 10:51:45;;;;;;;27.55;13.65;;;;;;;;;;4978625;28;20556;-81
2022/10/31 10:54:20;;;;;;;29.58;13.23;;;;;;;;;;4985770;28;20027;-81
2022/10/31 10:56:54;;;;;;;31.05;13.93;;;;;;;;;;4977394;28;20427;-81
2022/10/31 10:59:21;;;;;;;29.33;13.10;;;;;;;;;;4977363;28;20436;-81
2022/10/31 11:01:49;;;;;;;28.95;13.30;;;;;;;;;;4992357;28;20354;-84
2022/10/31 11:04:35;;;;;;;25.45;13.50;;;;;;;;;;4995345;28;20026;-82
2022/10/31 11:07:02;;;;;;;24.70;12.68;;;;;;;;;;5009790;28;20428;-82
2022/10/31 11:09:30;;;;;;;30.25;13.75;;;;;;;;;;5016147;28;20026;-81
2022/10/31 11:11:56;;;;;;;28.30;13.85;;;;;;;;;;5016100;28;20091;-82
2022/10/31 11:14:23;;;;;;;34.92;15.52;;;;;;;;;;5016186;28;20437;-81
2022/10/31 11:16:51;;;;;;;35.60;15.70;;;;;;;;;;4997174;28;20026;-82
2022/10/31 11:19:22;;;;;;;34.25;16.40;;;;;;;;;;5011464;28;20053;-81
2022/10/31 11:21:48;;;;;;;36.05;15.95;;;;;;;;;;5011496;28;20018;-81
2022/10/31 11:24:16;;;;;;;29.75;14.38;;;;;;;;;;4996472;28;20782;-81
2022/10/31 11:26:43;;;;;;;35.80;15.98;;;;;;;;;;5012258;28;20049;-81
2022/10/31 11:29:17;;;;;;;31.40;14.90;;;;;;;;;;5004203;28;20030;-81
2022/10/31 11:31:44;;;;;;;27.45;14.18;;;;;;;;;;4996532;28;20037;-81
2022/10/31 11:34:16;;;;;;;28.17;13.95;;;;;;;;;;4996158;28;20460;-82
2022/10/31 11:36:44;;;;;;;28.88;14.07;;;;;;;;;;5013626;28;20061;-82
2022/10/31 11:39:23;;;;;;;23.98;12.32;;;;;;;;;;5015959;28;20456;-81
2022/10/31 11:41:50;;;;;;;27.08;14.00;;;;;;;;;;5002874;28;20030;-82
2022/10/31 11:44:21;;;;;;;27.85;12.27;;;;;;;;;;4997433;28;20501;-83
2022/10/31 11:46:49;;;;;;;30.80;12.90;;;;;;;;;;4998804;28;20021;-81
2022/10/31 11:49:21;;;;;;;26.35;13.65;;;;;;;;;;5012885;28;20026;-82
2022/10/31 11:51:52;;;;;;;30.42;13.73;;;;;;;;;;4998975;28;20417;-82
2022/10/31 11:54:44;;;;;;;26.23;14.02;;;;;;;;;;5015477;28;20362;-82
2022/10/31 11:57:27;;;;;;;25.17;13.23;;;;;;;;;;4965330;28;20035;-82
2022/10/31 11:59:54;;;;;;;27.55;14.68;;;;;;;;;;4995579;28;20465;-82
2022/10/31 12:02:20;;;;;;;31.92;14.68;;;;;;;;;;4995483;28;20030;-82
2022/10/31 12:04:49;;;;;;;32.72;14.70;;;;;;;;;;5010539;28;20461;-82
2022/10/31 12:07:15;;;;;;;32.45;15.07;;;;;;;;;;5015065;28;20022;-82
2022/10/31 12:09:42;;;;;;;32.97;16.25;;;;;;;;;;4982235;28;20038;-82
2022/10/31 12:12:18;;;;;;;30.27;15.23;;;;;;;;;;5010524;28;20023;-82
2022/10/31 12:14:44;;;;;;;35.05;16.23;;;;;;;;;;5008592;28;20027;-82
2022/10/31 12:17:13;;;;;;;34.83;16.42;;;;;;;;;;4981800;28;20022;-82
2022/10/31 12:19:47;;;;;;;40.85;16.40;;;;;;;;;;4997662;28;20468;-82
2022/10/31 12:22:28;;;;;;;36.15;15.80;;;;;;;;;;4997348;28;20029;-83
2022/10/31 12:24:54;;;;;;;40.00;16.55;;;;;;;;;;5014856;28;20046;-83
2022/10/31 12:27:23;;;;;;;35.38;17.38;;;;;;;;;;5014601;28;20025;-82
2022/10/31 12:30:08;;;;;;;40.35;18.15;;;;;;;;;;5014883;28;20022;-82
2022/10/31 12:32:37;;;;;;;48.55;19.95;;;;;;;;;;5009033;28;20026;-82
2022/10/31 12:35:16;;;;;;;43.55;20.10;;;;;;;;;;4995318;28;20112;-82
2022/10/31 12:37:51;;;;;;;39.20;19.98;;;;;;;;;;5008301;28;20026;-82
2022/10/31 12:40:20;;;;;;;43.55;20.85;;;;;;;;;;4999752;28;20077;-81
2022/10/31 12:42:46;;;;;;;43.78;20.25;;;;;;;;;;5010142;28;20461;-82
2022/10/31 12:45:12;;;;;;;41.90;19.73;;;;;;;;;;4995052;28;20105;-81
2022/10/31 12:47:44;;;;;;;46.35;20.98;;;;;;;;;;4995137;28;20102;-82
2022/10/31 12:50:19;;;;;;;50.42;20.13;;;;;;;;;;4995278;28;20133;-82
2022/10/31 12:52:45;;;;;;;44.78;20.08;;;;;;;;;;4995125;28;20458;-82
2022/10/31 12:55:24;;;;;;;41.38;19.48;;;;;;;;;;5009819;28;20026;-82
2022/10/31 12:57:55;;;;;;;43.53;18.25;;;;;;;;;;4994803;28;20023;-86
2022/10/31 13:00:21;;;;;;;39.33;19.23;;;;;;;;;;4996864;28;20038;-82
2022/10/31 13:02:56;;;;;;;41.67;18.80;;;;;;;;;;4976796;28;20085;-82
2022/10/31 13:05:25;;;;;;;34.92;18.38;;;;;;;;;;4973618;28;20386;-81
2022/10/31 13:07:51;;;;;;;43.33;19.23;;;;;;;;;;4963319;28;20030;-81
2022/10/31 13:10:20;;;;;;;41.42;18.13;;;;;;;;;;4977060;28;20084;-81
2022/10/31 13:12:47;;;;;;;38.38;18.50;;;;;;;;;;4991580;28;20018;-81
2022/10/31 13:15:17;;;;;;;35.58;17.88;;;;;;;;;;4989629;28;20023;-81
2022/10/31 13:17:45;;;;;;;42.72;17.45;;;;;;;;;;4981786;28;20042;-82
2022/10/31 13:20:22;;;;;;;37.45;18.88;;;;;;;;;;4986432;28;20023;-82
2022/10/31 13:23:04;;;;;;;37.95;18.98;;;;;;;;;;4988263;28;20030;-82
2022/10/31 13:25:32;;;;;;;36.00;17.80;;;;;;;;;;4994096;28;20027;-82
2022/10/31 13:28:01;;;;;;;41.05;18.02;;;;;;;;;;4987956;28;20270;-81
2022/10/31 13:30:30;;;;;;;35.40;17.90;;;;;;;;;;4974763;28;20035;-82
2022/10/31 13:32:56;;;;;;;38.83;18.95;;;;;;;;;;4991360;28;20440;-82
2022/10/31 13:35:41;;;;;;;35.80;16.90;;;;;;;;;;4993874;28;20022;-81
2022/10/31 13:38:15;;;;;;;38.50;17.67;;;;;;;;;;4993923;28;20024;-82
2022/10/31 13:40:56;;;;;;;34.78;16.80;;;;;;;;;;4993966;28;20412;-81
2022/10/31 13:43:23;;;;;;;34.85;17.10;;;;;;;;;;4993746;28;20105;-81
2022/10/31 13:45:50;;;;;;;39.42;18.10;;;;;;;;;;4993847;28;20041;-81
2022/10/31 13:48:16;;;;;;;38.92;18.65;;;;;;;;;;4993850;28;20477;-82
2022/10/31 13:50:43;;;;;;;43.05;17.95;;;;;;;;;;4993744;28;20488;-82
2022/10/31 13:53:29;;;;;;;38.22;17.55;;;;;;;;;;4976029;28;20477;-82
2022/10/31 13:56:10;;;;;;;39.65;18.05;;;;;;;;;;4953785;28;20033;-81
2022/10/31 13:58:37;;;;;;;36.45;17.92;;;;;;;;;;4976059;28;20393;-82
2022/10/31 14:01:03;;;;;;;34.10;18.20;;;;;;;;;;4976143;28;20046;-81
2022/10/31 14:03:30;;;;;;;35.20;17.17;;;;;;;;;;4976287;28;20029;-82
2022/10/31 14:05:57;;;;;;;45.05;18.65;;;;;;;;;;4976087;28;20116;-82
2022/10/31 14:08:26;;;;;;;41.88;19.20;;;;;;;;;;4993395;28;20436;-82
2022/10/31 14:10:53;;;;;;;41.95;18.40;;;;;;;;;;4990625;28;20030;-82
2022/10/31 14:13:24;;;;;;;39.60;17.52;;;;;;;;;;4973901;28;20113;-82
2022/10/31 14:15:55;;;;;;;41.92;17.85;;;;;;;;;;4973835;28;20023;-82
2022/10/31 14:18:25;;;;;;;34.13;16.38;;;;;;;;;;4987253;28;20030;-81
2022/10/31 14:20:52;;;;;;;37.80;17.77;;;;;;;;;;4975581;28;20030;-80
2022/10/31 14:23:33;;;;;;;42.08;17.13;;;;;;;;;;4975444;28;20034;-82
2022/10/31 14:26:18;;;;;;;36.83;17.00;;;;;;;;;;4975338;28;20422;-82
2022/10/31 14:28:44;;;;;;;37.90;16.05;;;;;;;;;;4963539;28;20760;-80
2022/10/31 14:31:26;;;;;;;38.72;17.10;;;;;;;;;;4973799;28;20207;-81
2022/10/31 14:33:52;;;;;;;38.65;17.02;;;;;;;;;;4986625;28;20035;-78